createdAt,value
2016-03-06T00:02:19.813Z,1
2016-03-06T00:05:31.745Z,1
2016-03-06T00:08:43.758Z,1
2016-03-06T00:11:53.705Z,0
2016-03-06T00:15:05.168Z,0
2016-03-06T00:18:21.065Z,0
2016-03-06T00:21:22.184Z,0
2016-03-06T00:24:32.569Z,0
2016-03-06T00:27:44.592Z,0
2016-03-06T00:30:54.320Z,0
2016-03-06T00:34:05.811Z,0
2016-03-06T00:37:20.398Z,0
2016-03-06T00:40:21.453Z,0
2016-03-06T00:43:33.479Z,0
2016-03-06T00:46:45.519Z,0
2016-03-06T00:49:55.932Z,0
2016-03-06T00:53:07.738Z,0
2016-03-06T00:56:19.902Z,0
2016-03-06T00:59:28.834Z,0
2016-03-06T01:02:41.047Z,0
2016-03-06T01:05:52.725Z,0
2016-03-06T01:09:04.781Z,0
2016-03-06T01:12:23.029Z,0
2016-03-06T01:15:24.039Z,0
2016-03-06T01:18:36.094Z,0
2016-03-06T01:21:46.556Z,0
2016-03-06T01:24:58.485Z,0
2016-03-06T01:28:14.493Z,0
2016-03-06T01:31:21.595Z,0
2016-03-06T01:34:22.791Z,0
2016-03-06T01:37:34.488Z,0
2016-03-06T01:40:46.747Z,0
2016-03-06T01:43:56.130Z,0
2016-03-06T01:47:05.341Z,0
2016-03-06T01:50:20.537Z,0
2016-03-06T01:53:21.576Z,0
2016-03-06T01:56:33.040Z,0
2016-03-06T01:59:45.173Z,0
2016-03-06T02:02:57.134Z,0
2016-03-06T02:06:15.127Z,0
2016-03-06T02:09:22.150Z,0
2016-03-06T02:12:23.377Z,0
2016-03-06T02:15:35.497Z,0
2016-03-06T02:18:46.099Z,0
2016-03-06T02:21:58.248Z,0
2016-03-06T02:25:15.881Z,0
2016-03-06T02:28:22.967Z,0
2016-03-06T02:31:24.194Z,0
2016-03-06T02:34:36.533Z,0
2016-03-06T02:37:48.635Z,0
2016-03-06T02:41:00.533Z,0
2016-03-06T02:44:16.479Z,0
2016-03-06T02:47:23.534Z,0
2016-03-06T02:50:24.495Z,0
2016-03-06T02:53:36.396Z,0
2016-03-06T02:56:45.545Z,0
2016-03-06T02:59:54.194Z,0
2016-03-06T03:03:05.640Z,0
2016-03-06T03:06:21.881Z,0
2016-03-06T03:09:22.875Z,0
2016-03-06T03:12:34.932Z,0
2016-03-06T03:15:47.283Z,0
2016-03-06T03:18:55.792Z,0
2016-03-06T03:22:07.596Z,0
2016-03-06T03:25:19.652Z,0
2016-03-06T03:28:29.443Z,0
2016-03-06T03:31:41.389Z,0
2016-03-06T03:34:50.429Z,0
2016-03-06T03:38:01.467Z,0
2016-03-06T03:41:17.929Z,0
2016-03-06T03:44:18.955Z,0
2016-03-06T03:47:28.054Z,0
2016-03-06T03:50:37.756Z,0
2016-03-06T03:53:49.836Z,0
2016-03-06T03:57:01.735Z,0
2016-03-06T04:00:17.976Z,0
2016-03-06T04:03:19.030Z,0
2016-03-06T04:06:31.118Z,0
2016-03-06T04:09:43.267Z,0
2016-03-06T04:12:55.087Z,0
2016-03-06T04:16:07.158Z,0
2016-03-06T04:19:22.197Z,0
2016-03-06T04:22:23.205Z,0
2016-03-06T04:25:34.856Z,0
2016-03-06T04:28:45.380Z,0
2016-03-06T04:31:57.452Z,0
2016-03-06T04:35:08.444Z,0
2016-03-06T04:38:20.607Z,0
2016-03-06T04:41:29.290Z,0
2016-03-06T04:44:41.329Z,0
2016-03-06T04:47:53.384Z,0
2016-03-06T04:51:05.236Z,0
2016-03-06T04:54:21.386Z,0
2016-03-06T04:57:23.226Z,0
2016-03-06T05:00:32.643Z,0
2016-03-06T05:03:41.855Z,0
2016-03-06T05:06:54.628Z,0
2016-03-06T05:10:03.464Z,0
2016-03-06T05:13:22.019Z,0
2016-03-06T05:16:22.949Z,1
2016-03-06T05:19:34.647Z,1
2016-03-06T05:22:44.764Z,1
2016-03-06T05:25:56.289Z,2
2016-03-06T05:29:08.155Z,4
2016-03-06T05:32:20.023Z,5
2016-03-06T05:35:29.534Z,7
2016-03-06T05:38:40.011Z,11
2016-03-06T05:41:50.160Z,14
2016-03-06T05:45:02.059Z,19
2016-03-06T05:48:20.051Z,25
2016-03-06T05:51:21.028Z,35
2016-03-06T05:54:30.882Z,47
2016-03-06T05:57:43.077Z,60
2016-03-06T06:00:55.194Z,68
2016-03-06T06:04:07.265Z,87
2016-03-06T06:07:19.070Z,99
2016-03-06T06:10:31.254Z,130
2016-03-06T06:13:41.824Z,156
2016-03-06T06:16:53.238Z,173
2016-03-06T06:20:03.136Z,208
2016-03-06T06:23:21.083Z,233
2016-03-06T06:26:22.153Z,266
2016-03-06T06:29:32.804Z,311
2016-03-06T06:32:45.063Z,351
2016-03-06T06:35:57.179Z,357
2016-03-06T06:39:06.312Z,412
2016-03-06T06:42:24.368Z,448
2016-03-06T06:45:25.595Z,501
2016-03-06T06:48:37.590Z,520
2016-03-06T06:51:46.613Z,525
2016-03-06T06:54:58.433Z,525
2016-03-06T06:58:16.770Z,535
2016-03-06T07:01:23.966Z,595
2016-03-06T07:04:25.114Z,670
2016-03-06T07:07:34.427Z,766
2016-03-06T07:10:46.607Z,834
2016-03-06T07:13:58.725Z,897
2016-03-06T07:17:07.779Z,1015
2016-03-06T07:20:23.850Z,1030
2016-03-06T07:23:24.999Z,1018
2016-03-06T07:26:35.400Z,919
2016-03-06T07:29:47.518Z,988
2016-03-06T07:32:59.651Z,1387
2016-03-06T07:36:18.127Z,1635
2016-03-06T07:39:19.292Z,1519
2016-03-06T07:42:29.878Z,1673
2016-03-06T07:45:41.920Z,1825
2016-03-06T07:48:51.084Z,1774
2016-03-06T07:52:00.186Z,1699
2016-03-06T07:55:18.194Z,1790
2016-03-06T07:58:19.343Z,1461
2016-03-06T08:01:29.929Z,1374
2016-03-06T08:04:39.674Z,1031
2016-03-06T08:07:51.784Z,1129
2016-03-06T08:11:04.026Z,1287
2016-03-06T08:14:18.456Z,988
2016-03-06T08:17:19.620Z,1127
2016-03-06T08:20:31.428Z,1183
2016-03-06T08:23:43.702Z,1037
2016-03-06T08:26:55.475Z,978
2016-03-06T08:30:07.561Z,890
2016-03-06T08:33:19.460Z,788
2016-03-06T08:36:28.655Z,899
2016-03-06T08:39:40.838Z,880
2016-03-06T08:42:51.503Z,1147
2016-03-06T08:46:03.432Z,873
2016-03-06T08:49:21.269Z,1295
2016-03-06T08:52:22.231Z,1164
2016-03-06T08:55:32.631Z,1318
2016-03-06T08:58:44.608Z,886
2016-03-06T09:01:55.960Z,961
2016-03-06T09:05:07.952Z,1518
2016-03-06T09:08:25.570Z,2148
2016-03-06T09:11:26.531Z,1522
2016-03-06T09:14:35.776Z,1910
2016-03-06T09:17:47.863Z,2570
2016-03-06T09:20:57.512Z,1319
2016-03-06T09:24:07.144Z,1007
2016-03-06T09:27:22.136Z,1627
2016-03-06T09:30:23.191Z,1511
2016-03-06T09:33:33.686Z,2403
2016-03-06T09:36:45.773Z,2609
2016-03-06T09:39:57.734Z,2828
2016-03-06T09:43:09.883Z,2591
2016-03-06T09:46:21.782Z,2656
2016-03-06T09:49:33.792Z,2657
2016-03-06T09:52:45.831Z,2867
2016-03-06T09:55:57.699Z,2993
2016-03-06T09:59:06.942Z,2452
2016-03-06T10:02:22.091Z,2429
2016-03-06T10:05:23.130Z,2467
2016-03-06T10:08:35.249Z,2381
2016-03-06T10:11:47.288Z,2812
2016-03-06T10:14:59.156Z,3791
2016-03-06T10:18:09.008Z,3200
2016-03-06T10:21:20.781Z,2939
2016-03-06T10:24:31.103Z,3064
2016-03-06T10:27:41.378Z,2910
2016-03-06T10:30:51.386Z,2621
2016-03-06T10:34:03.472Z,2616
2016-03-06T10:37:21.340Z,2765
2016-03-06T10:40:22.239Z,2698
2016-03-06T10:43:34.093Z,2431
2016-03-06T10:46:45.976Z,1963
2016-03-06T10:49:54.469Z,2588
2016-03-06T10:53:06.493Z,4454
2016-03-06T10:56:24.392Z,2999
2016-03-06T10:59:25.290Z,2242
2016-03-06T11:02:35.473Z,2397
2016-03-06T11:05:45.013Z,2123
2016-03-06T11:08:53.786Z,2778
2016-03-06T11:12:02.684Z,2647
2016-03-06T11:15:20.755Z,2001
2016-03-06T11:18:21.748Z,2413
2016-03-06T11:21:33.193Z,3600
2016-03-06T11:24:45.078Z,3975
2016-03-06T11:27:54.524Z,3699
2016-03-06T11:31:05.750Z,3073
2016-03-06T11:34:23.166Z,2152
2016-03-06T11:37:24.033Z,2835
2016-03-06T11:40:35.893Z,3170
2016-03-06T11:43:47.963Z,3215
2016-03-06T11:46:56.675Z,3128
2016-03-06T11:50:06.777Z,4739
2016-03-06T11:53:22.676Z,4000
2016-03-06T11:56:23.324Z,3078
2016-03-06T11:59:33.020Z,2190
2016-03-06T12:02:44.890Z,2540
2016-03-06T12:05:56.850Z,2243
2016-03-06T12:09:05.609Z,3347
2016-03-06T12:12:20.774Z,3374
2016-03-06T12:15:21.860Z,2688
2016-03-06T12:18:33.743Z,2264
2016-03-06T12:21:45.566Z,2206
2016-03-06T12:24:57.277Z,2256
2016-03-06T12:28:08.785Z,1704
2016-03-06T12:31:25.982Z,1552
2016-03-06T12:34:26.801Z,1933
2016-03-06T12:37:38.531Z,1540
2016-03-06T12:40:50.039Z,1794
2016-03-06T12:47:06.309Z,2797
2016-03-06T12:50:24.296Z,2523
2016-03-06T12:53:25.213Z,2483
2016-03-06T12:56:33.931Z,2253
2016-03-06T12:59:42.936Z,1793
2016-03-06T13:02:54.675Z,2277
2016-03-06T13:06:06.650Z,2666
2016-03-06T13:09:24.548Z,3638
2016-03-06T13:12:25.555Z,3813
2016-03-06T13:15:37.411Z,3127
2016-03-06T13:18:48.888Z,2310
2016-03-06T13:21:57.676Z,3072
2016-03-06T13:25:06.594Z,2044
2016-03-06T13:28:22.341Z,1782
2016-03-06T13:31:23.238Z,2506
2016-03-06T13:34:32.247Z,2041
2016-03-06T13:37:41.881Z,2109
2016-03-06T13:40:51.702Z,2478
2016-03-06T13:44:04.008Z,3178
2016-03-06T13:47:18.672Z,3313
2016-03-06T13:50:25.524Z,2124
2016-03-06T13:53:26.891Z,1400
2016-03-06T13:56:38.805Z,2021
2016-03-06T13:59:50.894Z,2079
2016-03-06T14:03:01.871Z,1996
2016-03-06T14:06:19.827Z,3012
2016-03-06T14:09:27.195Z,3211
2016-03-06T14:12:27.531Z,1765
2016-03-06T14:15:39.351Z,1413
2016-03-06T14:18:51.190Z,1462
2016-03-06T14:22:02.386Z,1835
2016-03-06T14:25:17.706Z,1534
2016-03-06T14:28:24.481Z,1876
2016-03-06T14:31:25.302Z,1891
2016-03-06T14:34:34.371Z,1144
2016-03-06T14:37:46.207Z,943
2016-03-06T14:40:58.125Z,1622
2016-03-06T14:44:07.427Z,1433
2016-03-06T14:47:22.158Z,1927
2016-03-06T14:50:22.993Z,2100
2016-03-06T14:53:34.737Z,1893
2016-03-06T14:56:46.666Z,2244
2016-03-06T14:59:58.487Z,2542
2016-03-06T15:03:09.995Z,2330
2016-03-06T15:06:21.787Z,2563
2016-03-06T15:09:33.451Z,2833
2016-03-06T15:12:45.413Z,2968
2016-03-06T15:15:57.358Z,2878
2016-03-06T15:19:07.444Z,2784
2016-03-06T15:22:25.735Z,2981
2016-03-06T15:25:26.401Z,3007
2016-03-06T15:28:35.002Z,2669
2016-03-06T15:31:44.792Z,2110
2016-03-06T15:34:56.753Z,1689
2016-03-06T15:38:08.448Z,1632
2016-03-06T15:41:22.911Z,1595
2016-03-06T15:44:23.624Z,1678
2016-03-06T15:47:35.491Z,1694
2016-03-06T15:50:46.061Z,1693
2016-03-06T15:53:57.757Z,1533
2016-03-06T15:57:09.875Z,1362
2016-03-06T16:00:23.963Z,1025
2016-03-06T16:03:33.675Z,838
2016-03-06T16:06:45.714Z,607
2016-03-06T16:09:57.503Z,521
2016-03-06T16:13:09.355Z,520
2016-03-06T16:16:27.224Z,576
2016-03-06T16:19:27.889Z,473
2016-03-06T16:22:39.960Z,434
2016-03-06T16:25:48.452Z,364
2016-03-06T16:28:58.071Z,301
2016-03-06T16:32:09.907Z,261
2016-03-06T16:35:25.776Z,297
2016-03-06T16:38:26.737Z,263
2016-03-06T16:41:38.698Z,225
2016-03-06T16:44:48.644Z,187
2016-03-06T16:48:00.668Z,148
2016-03-06T16:51:09.801Z,121
2016-03-06T16:54:26.155Z,88
2016-03-06T16:57:27.210Z,61
2016-03-06T17:00:38.593Z,46
2016-03-06T17:03:50.274Z,34
2016-03-06T17:06:59.595Z,24
2016-03-06T17:10:10.820Z,15
2016-03-06T17:13:27.347Z,9
2016-03-06T17:16:28.308Z,4
2016-03-06T17:19:39.925Z,3
2016-03-06T17:22:51.574Z,2
2016-03-06T17:26:03.645Z,1
2016-03-06T17:29:18.513Z,1
2016-03-06T17:32:25.164Z,1
2016-03-06T17:35:25.907Z,1
2016-03-06T17:38:35.462Z,1
2016-03-06T17:41:47.234Z,1
2016-03-06T17:44:59.086Z,1
2016-03-06T17:48:10.814Z,1
2016-03-06T17:51:27.261Z,1
2016-03-06T17:54:27.926Z,1
2016-03-06T17:57:39.512Z,1
2016-03-06T18:00:49.427Z,1
2016-03-06T18:04:00.840Z,1
2016-03-06T18:07:18.776Z,1
2016-03-06T18:10:25.318Z,1
2016-03-06T18:13:26.013Z,1
2016-03-06T18:16:37.755Z,1
2016-03-06T18:19:46.654Z,1
2016-03-06T18:22:56.788Z,1
2016-03-06T18:26:08.435Z,1
2016-03-06T18:29:22.619Z,1
2016-03-06T18:32:23.283Z,1
2016-03-06T18:35:34.885Z,1
2016-03-06T18:38:46.752Z,1
2016-03-06T18:41:55.792Z,1
2016-03-06T18:45:04.784Z,1
2016-03-06T18:48:22.529Z,1
2016-03-06T18:51:23.115Z,1
2016-03-06T18:54:33.138Z,1
2016-03-06T18:57:44.896Z,1
2016-03-06T19:00:56.795Z,1
2016-03-06T19:04:05.023Z,1
2016-03-06T19:07:22.673Z,1
2016-03-06T19:10:23.275Z,1
2016-03-06T19:13:35.050Z,1
2016-03-06T19:16:46.480Z,1
2016-03-06T19:19:58.346Z,1
2016-03-06T19:23:10.057Z,1
2016-03-06T19:26:25.460Z,1
2016-03-06T19:29:25.951Z,1
2016-03-06T19:32:37.148Z,1
2016-03-06T19:35:48.718Z,1
2016-03-06T19:39:00.195Z,1
2016-03-06T19:42:11.406Z,1
2016-03-06T19:45:23.151Z,1
2016-03-06T19:48:33.222Z,1
2016-03-06T19:51:42.198Z,1
2016-03-06T19:54:53.644Z,1
2016-03-06T19:58:02.637Z,1
2016-03-06T20:01:11.973Z,1
2016-03-06T20:04:23.484Z,1
2016-03-06T20:07:34.914Z,1
2016-03-06T20:10:45.797Z,1
2016-03-06T20:13:57.305Z,1
2016-03-06T20:17:09.031Z,1
2016-03-06T20:20:26.464Z,1
2016-03-06T20:23:27.034Z,1
2016-03-06T20:26:37.792Z,1
2016-03-06T20:29:49.004Z,1
2016-03-06T20:32:57.621Z,1
2016-03-06T20:36:08.427Z,1
2016-03-06T20:39:25.421Z,1
2016-03-06T20:42:26.023Z,1
2016-03-06T20:45:37.453Z,1
2016-03-06T20:48:48.602Z,1
2016-03-06T20:51:56.907Z,1
2016-03-06T20:55:05.711Z,1
2016-03-06T20:58:15.236Z,1
2016-03-06T21:01:32.777Z,1
2016-03-06T21:04:33.160Z,1
2016-03-06T21:07:41.966Z,1
2016-03-06T21:10:52.990Z,1
2016-03-06T21:14:04.497Z,1
2016-03-06T21:17:11.599Z,1
2016-03-06T21:20:26.172Z,1
2016-03-06T21:23:33.727Z,1
2016-03-06T21:26:33.079Z,1
2016-03-06T21:29:44.510Z,1
2016-03-06T21:32:56.033Z,1
2016-03-06T21:36:06.979Z,1
2016-03-06T21:39:18.392Z,1
2016-03-06T21:42:30.248Z,1
2016-03-06T21:45:41.567Z,1
2016-03-06T21:48:50.997Z,1
2016-03-06T21:52:02.402Z,1
2016-03-06T21:55:11.799Z,1
2016-03-06T21:58:29.066Z,1
2016-03-06T22:01:29.408Z,1
2016-03-06T22:04:43.927Z,1
2016-03-06T22:07:52.118Z,1
2016-03-06T22:11:03.766Z,1
2016-03-06T22:14:12.322Z,1
2016-03-06T22:17:29.769Z,1
2016-03-06T22:20:30.215Z,1
2016-03-06T22:23:38.818Z,1
2016-03-06T22:26:50.481Z,1
2016-03-06T22:29:59.676Z,1
2016-03-06T22:33:11.122Z,1
2016-03-06T22:36:26.193Z,1
2016-03-06T22:39:32.875Z,1
2016-03-06T22:42:33.228Z,1
2016-03-06T22:45:44.720Z,1
2016-03-06T22:48:56.415Z,1
2016-03-06T22:52:05.658Z,1
2016-03-06T22:55:17.244Z,1
2016-03-06T22:58:34.549Z,1
2016-03-06T23:01:35.026Z,1
2016-03-06T23:04:45.769Z,1
2016-03-06T23:07:54.546Z,1
2016-03-06T23:11:06.163Z,1
2016-03-06T23:14:15.983Z,1
2016-03-06T23:17:33.570Z,1
2016-03-06T23:20:33.952Z,1
2016-03-06T23:23:42.054Z,1
2016-03-06T23:26:53.347Z,1
2016-03-06T23:30:04.121Z,1
2016-03-06T23:33:15.472Z,1
2016-03-06T23:36:32.980Z,1
2016-03-06T23:39:33.504Z,1
2016-03-06T23:42:44.527Z,1
2016-03-06T23:45:56.195Z,1
2016-03-06T23:49:07.156Z,1
2016-03-06T23:52:18.898Z,1
2016-03-06T23:55:34.469Z,1
2016-03-06T23:58:35.024Z,1
